createdAt,value
2023-02-11T00:01:30.615Z,29.95
2023-02-11T00:03:59.007Z,30.73
2023-02-11T00:06:28.173Z,31.17
2023-02-11T00:11:25.696Z,25.15
2023-02-11T00:13:52.735Z,31.50
2023-02-11T00:16:22.981Z,29.23
2023-02-11T00:18:50.395Z,28.33
2023-02-11T00:21:20.812Z,31.25
2023-02-11T00:23:48.381Z,31.88
2023-02-11T00:26:24.734Z,31.67
2023-02-11T00:28:53.459Z,27.65
2023-02-11T00:31:22.629Z,29.63
2023-02-11T00:33:50.546Z,25.63
2023-02-11T00:36:23.328Z,30.77
2023-02-11T00:38:55.157Z,29.38
2023-02-11T00:41:23.278Z,27.20
2023-02-11T00:46:20.952Z,26.73
2023-02-11T00:48:48.480Z,27.20
2023-02-11T00:51:18.358Z,28.52
2023-02-11T00:53:47.761Z,30.33
2023-02-11T00:56:16.994Z,26.48
2023-02-11T00:58:44.101Z,27.20
2023-02-11T01:01:12.680Z,28.50
2023-02-11T01:03:40.738Z,25.95
2023-02-11T01:06:09.158Z,29.58
2023-02-11T01:08:40.162Z,28.25
2023-02-11T01:11:14.113Z,30.48
2023-02-11T01:13:42.582Z,25.25
2023-02-11T01:16:10.854Z,28.85
2023-02-11T01:18:39.105Z,27.05
2023-02-11T01:21:08.891Z,30.75
2023-02-11T01:23:36.311Z,27.10
2023-02-11T01:26:08.092Z,30.70
2023-02-11T01:28:45.472Z,27.23
2023-02-11T01:31:12.987Z,24.77
2023-02-11T01:33:43.199Z,30.38
2023-02-11T01:36:12.152Z,28.55
2023-02-11T01:38:41.149Z,27.58
2023-02-11T01:41:11.744Z,26.90
2023-02-11T01:43:45.938Z,32.05
2023-02-11T01:46:37.031Z,29.52
2023-02-11T01:49:11.738Z,30.38
2023-02-11T01:51:44.081Z,30.77
2023-02-11T01:54:41.833Z,37.75
2023-02-11T01:57:22.266Z,33.22
2023-02-11T01:59:54.649Z,28.45
2023-02-11T02:02:27.202Z,28.75
2023-02-11T02:05:02.970Z,30.55
2023-02-11T02:07:42.454Z,35.05
2023-02-11T02:10:17.894Z,30.83
2023-02-11T02:12:45.204Z,30.98
2023-02-11T02:15:23.797Z,28.02
2023-02-11T02:18:30.998Z,29.17
2023-02-11T02:21:22.492Z,33.70
2023-02-11T02:24:16.989Z,29.67
2023-02-11T02:27:02.869Z,27.03
2023-02-11T02:29:54.234Z,28.45
2023-02-11T02:32:32.045Z,30.37
2023-02-11T02:35:17.543Z,28.20
2023-02-11T02:37:59.710Z,29.27
2023-02-11T02:40:38.724Z,30.02
2023-02-11T02:43:09.321Z,31.67
2023-02-11T02:45:36.646Z,25.48
2023-02-11T02:48:03.897Z,30.42
2023-02-11T02:50:35.600Z,28.37
2023-02-11T02:53:24.861Z,27.60
2023-02-11T02:58:56.788Z,25.75
2023-02-11T03:01:34.601Z,27.30
2023-02-11T03:04:19.939Z,30.47
2023-02-11T03:06:47.156Z,29.30
2023-02-11T03:09:49.670Z,30.00
2023-02-11T03:12:17.895Z,31.07
2023-02-11T03:14:46.731Z,31.50
2023-02-11T03:17:16.229Z,30.13
2023-02-11T03:19:45.885Z,28.73
2023-02-11T03:22:37.240Z,31.03
2023-02-11T03:25:05.625Z,29.40
2023-02-11T03:27:52.115Z,27.42
2023-02-11T03:30:19.691Z,32.37
2023-02-11T03:32:54.905Z,30.13
2023-02-11T03:35:26.902Z,34.13
2023-02-11T03:38:09.263Z,31.00
2023-02-11T03:40:39.782Z,28.70
2023-02-11T03:43:09.862Z,33.73
2023-02-11T03:45:38.930Z,29.93
2023-02-11T03:48:14.750Z,30.33
2023-02-11T03:50:46.934Z,28.67
2023-02-11T03:53:20.961Z,30.30
2023-02-11T03:55:50.595Z,28.87
2023-02-11T03:58:18.045Z,27.83
2023-02-11T04:00:45.685Z,26.47
2023-02-11T04:03:15.627Z,30.93
2023-02-11T04:05:42.605Z,27.57
2023-02-11T04:08:09.749Z,26.60
2023-02-11T04:10:37.464Z,28.23
2023-02-11T04:13:04.459Z,32.33
2023-02-11T04:15:43.958Z,35.13
2023-02-11T04:18:10.993Z,29.00
2023-02-11T04:20:40.503Z,34.90
2023-02-11T04:23:07.544Z,34.10
2023-02-11T04:25:34.692Z,35.87
2023-02-11T04:28:02.108Z,33.90
2023-02-11T04:30:29.271Z,32.05
2023-02-11T04:32:58.522Z,32.33
2023-02-11T04:35:25.765Z,34.83
2023-02-11T04:37:52.741Z,33.03
2023-02-11T04:40:19.974Z,31.07
2023-02-11T04:42:47.035Z,36.43
2023-02-11T04:45:16.690Z,36.60
2023-02-11T04:47:43.778Z,36.08
2023-02-11T04:50:11.138Z,30.47
2023-02-11T04:52:38.160Z,37.63
2023-02-11T04:55:05.954Z,34.77
2023-02-11T04:57:32.946Z,32.63
2023-02-11T05:00:00.098Z,32.90
2023-02-11T05:02:27.694Z,43.70
2023-02-11T05:04:54.879Z,35.30
2023-02-11T05:07:22.105Z,44.10
2023-02-11T05:09:52.419Z,41.70
2023-02-11T05:12:19.590Z,41.63
2023-02-11T05:14:49.804Z,37.17
2023-02-11T05:17:30.052Z,43.33
2023-02-11T05:19:57.109Z,39.87
2023-02-11T05:22:24.120Z,43.97
2023-02-11T05:24:51.328Z,42.97
2023-02-11T05:27:20.927Z,40.57
2023-02-11T05:29:47.940Z,45.97
2023-02-11T05:32:15.089Z,41.77
2023-02-11T05:34:42.100Z,38.00
2023-02-11T05:37:09.280Z,38.03
2023-02-11T05:39:36.426Z,35.03
2023-02-11T05:42:03.638Z,37.43
2023-02-11T05:44:30.773Z,36.60
2023-02-11T05:46:57.883Z,39.73
2023-02-11T05:49:24.965Z,37.27
2023-02-11T05:51:52.228Z,39.13
2023-02-11T05:54:19.295Z,36.67
2023-02-11T05:56:46.420Z,35.37
2023-02-11T05:59:14.993Z,40.97
2023-02-11T06:01:42.752Z,29.45
2023-02-11T06:04:09.840Z,35.57
2023-02-11T06:06:37.170Z,35.83
2023-02-11T06:09:07.351Z,33.73
2023-02-11T06:11:37.072Z,36.50
2023-02-11T06:14:05.793Z,36.07
2023-02-11T06:16:32.709Z,37.87
2023-02-11T06:18:59.765Z,36.50
2023-02-11T06:21:42.465Z,34.57
2023-02-11T06:24:11.561Z,34.13
2023-02-11T06:26:41.632Z,36.43
2023-02-11T06:29:09.116Z,38.53
2023-02-11T06:31:38.829Z,34.00
2023-02-11T06:34:06.246Z,37.10
2023-02-11T06:36:33.810Z,39.10
2023-02-11T06:39:01.371Z,34.20
2023-02-11T06:41:28.393Z,35.67
2023-02-11T06:43:55.621Z,36.97
2023-02-11T06:46:23.060Z,38.53
2023-02-11T06:48:50.305Z,38.03
2023-02-11T06:51:17.599Z,41.20
2023-02-11T06:53:46.552Z,40.30
2023-02-11T06:56:20.316Z,42.55
2023-02-11T06:58:48.043Z,54.50
2023-02-11T07:01:16.462Z,51.27
2023-02-11T07:03:45.759Z,47.35
2023-02-11T07:08:43.084Z,38.15
2023-02-11T07:11:24.906Z,39.30
2023-02-11T07:13:53.860Z,47.47
2023-02-11T07:16:21.549Z,35.13
2023-02-11T07:18:49.418Z,39.60
2023-02-11T07:21:19.457Z,41.30
2023-02-11T07:23:48.627Z,41.10
2023-02-11T07:26:18.762Z,42.42
2023-02-11T07:28:46.429Z,38.93
2023-02-11T07:31:17.057Z,43.10
2023-02-11T07:33:46.043Z,43.20
2023-02-11T07:36:16.878Z,49.38
2023-02-11T07:38:44.758Z,43.92
2023-02-11T07:41:17.901Z,44.30
2023-02-11T07:43:45.629Z,43.07
2023-02-11T07:46:18.397Z,42.97
2023-02-11T07:48:45.554Z,44.50
2023-02-11T07:51:18.637Z,44.07
2023-02-11T07:53:46.321Z,42.33
2023-02-11T07:56:15.417Z,39.40
2023-02-11T07:58:43.256Z,45.67
2023-02-11T08:01:15.640Z,39.90
2023-02-11T08:03:43.607Z,41.35
2023-02-11T08:06:16.073Z,39.07
2023-02-11T08:08:43.503Z,39.43
2023-02-11T08:11:15.873Z,41.47
2023-02-11T08:13:44.029Z,42.20
2023-02-11T08:16:25.785Z,35.33
2023-02-11T08:19:05.930Z,38.43
2023-02-11T08:21:36.140Z,40.00
2023-02-11T08:24:04.020Z,41.27
2023-02-11T08:26:34.800Z,42.27
2023-02-11T08:29:06.698Z,36.10
2023-02-11T08:31:36.407Z,39.72
2023-02-11T08:34:03.641Z,39.27
2023-02-11T08:36:36.037Z,39.93
2023-02-11T08:39:18.666Z,40.37
2023-02-11T08:41:49.607Z,42.23
2023-02-11T08:44:18.880Z,38.33
2023-02-11T08:49:18.823Z,39.03
2023-02-11T08:51:46.796Z,41.87
2023-02-11T08:54:14.611Z,36.30
2023-02-11T08:56:41.952Z,48.17
2023-02-11T08:59:13.987Z,39.38
2023-02-11T09:01:41.578Z,38.75
2023-02-11T09:04:12.642Z,41.05
2023-02-11T09:06:40.322Z,43.10
2023-02-11T09:09:11.664Z,35.77
2023-02-11T09:11:40.756Z,41.90
2023-02-11T09:14:08.295Z,37.03
2023-02-11T09:16:36.629Z,41.28
2023-02-11T09:19:09.386Z,38.65
2023-02-11T09:21:39.169Z,38.53
2023-02-11T09:24:09.818Z,38.53
2023-02-11T09:26:39.468Z,37.80
2023-02-11T09:29:07.635Z,33.72
2023-02-11T09:31:35.368Z,33.83
2023-02-11T09:34:05.659Z,28.50
2023-02-11T09:36:41.014Z,30.77
2023-02-11T09:39:15.739Z,30.85
2023-02-11T09:41:45.266Z,29.55
2023-02-11T09:44:44.357Z,31.27
2023-02-11T09:47:35.777Z,31.73
2023-02-11T09:50:18.475Z,33.22
2023-02-11T09:53:03.178Z,28.33
2023-02-11T09:55:42.397Z,31.85
2023-02-11T10:01:10.785Z,30.13
2023-02-11T10:04:15.567Z,31.08
2023-02-11T10:06:51.048Z,31.02
2023-02-11T10:09:56.816Z,51.50
2023-02-11T10:12:48.830Z,29.92
2023-02-11T10:15:31.174Z,34.80
2023-02-11T10:18:07.816Z,27.67
2023-02-11T10:20:39.406Z,27.90
2023-02-11T10:23:25.917Z,28.48
2023-02-11T10:25:56.439Z,29.13
2023-02-11T10:28:35.915Z,35.20
2023-02-11T10:31:06.475Z,33.30
2023-02-11T10:33:48.711Z,32.42
2023-02-11T10:36:18.268Z,31.88
2023-02-11T10:38:45.390Z,26.90
2023-02-11T10:41:20.065Z,29.58
2023-02-11T10:43:57.640Z,33.25
2023-02-11T10:46:33.203Z,27.95
2023-02-11T10:49:00.378Z,22.52
2023-02-11T10:51:34.202Z,26.38
2023-02-11T10:54:04.328Z,25.45
2023-02-11T10:56:34.603Z,25.73
2023-02-11T10:59:21.664Z,27.02
2023-02-11T11:02:32.197Z,28.27
2023-02-11T11:05:03.700Z,33.03
2023-02-11T11:07:33.831Z,28.88
2023-02-11T11:10:36.205Z,25.33
2023-02-11T11:13:03.607Z,23.33
2023-02-11T11:15:32.468Z,33.90
2023-02-11T11:18:20.985Z,27.98
2023-02-11T11:23:30.040Z,24.10
2023-02-11T11:26:14.732Z,23.70
2023-02-11T11:28:41.604Z,25.27
2023-02-11T11:31:19.383Z,21.83
2023-02-11T11:33:48.248Z,25.95
2023-02-11T11:36:22.973Z,25.02
2023-02-11T11:38:54.364Z,22.95
2023-02-11T11:41:27.100Z,21.38
2023-02-11T11:43:58.247Z,23.05
2023-02-11T11:46:38.637Z,22.52
2023-02-11T11:49:21.105Z,16.77
2023-02-11T11:52:11.935Z,19.02
2023-02-11T11:54:42.624Z,20.90
2023-02-11T11:57:17.765Z,21.17
2023-02-11T11:59:45.337Z,25.08
2023-02-11T12:02:22.255Z,25.48
2023-02-11T12:05:11.924Z,21.38
2023-02-11T12:07:51.274Z,21.10
2023-02-11T12:12:53.107Z,25.10
2023-02-11T12:15:32.653Z,20.60
2023-02-11T12:18:10.167Z,19.67
2023-02-11T12:20:55.727Z,15.63
2023-02-11T12:23:42.286Z,18.70
2023-02-11T12:26:23.028Z,19.50
2023-02-11T12:29:27.486Z,18.10
2023-02-11T12:32:33.634Z,18.00
2023-02-11T12:35:40.271Z,18.52
2023-02-11T12:38:48.509Z,19.90
2023-02-11T12:41:51.260Z,16.65
2023-02-11T12:44:36.438Z,18.25
2023-02-11T12:47:10.032Z,18.45
2023-02-11T12:49:49.054Z,19.60
2023-02-11T12:52:25.208Z,20.65
2023-02-11T12:54:52.174Z,20.70
2023-02-11T12:57:26.546Z,17.52
2023-02-11T13:00:15.552Z,21.48
2023-02-11T13:03:05.593Z,21.90
2023-02-11T13:05:40.624Z,22.42
2023-02-11T13:08:29.339Z,20.17
2023-02-11T13:11:03.932Z,19.17
2023-02-11T13:13:51.664Z,21.88
2023-02-11T13:16:24.890Z,19.67
2023-02-11T13:19:03.856Z,18.98
2023-02-11T13:21:41.011Z,18.92
2023-02-11T13:24:44.658Z,18.63
2023-02-11T13:27:36.632Z,21.95
2023-02-11T13:30:35.252Z,22.88
2023-02-11T13:33:04.842Z,18.02
2023-02-11T13:35:36.379Z,17.88
2023-02-11T13:38:23.923Z,18.63
2023-02-11T13:41:35.875Z,22.92
2023-02-11T13:44:08.589Z,17.02
2023-02-11T13:46:49.605Z,19.92
2023-02-11T13:49:21.294Z,19.30
2023-02-11T13:51:49.189Z,17.27
2023-02-11T13:54:28.557Z,17.45
2023-02-11T13:57:20.400Z,16.17
2023-02-11T14:00:09.929Z,18.40
2023-02-11T14:02:56.021Z,15.93
2023-02-11T14:05:47.452Z,16.42
2023-02-11T14:08:42.220Z,15.70
2023-02-11T14:11:25.261Z,22.33
2023-02-11T14:14:01.961Z,17.67
2023-02-11T14:16:37.997Z,16.73
2023-02-11T14:19:06.652Z,17.77
2023-02-11T14:21:37.589Z,19.75
2023-02-11T14:24:05.050Z,19.15
2023-02-11T14:26:45.165Z,19.55
2023-02-11T14:29:25.502Z,20.60
2023-02-11T14:32:06.655Z,22.83
2023-02-11T14:35:01.932Z,24.02
2023-02-11T14:38:03.866Z,19.52
2023-02-11T14:40:47.209Z,22.40
2023-02-11T14:43:21.065Z,20.17
2023-02-11T14:45:53.866Z,20.50
2023-02-11T14:48:27.406Z,23.80
2023-02-11T14:51:01.670Z,26.95
2023-02-11T14:53:31.957Z,27.67
2023-02-11T14:55:59.366Z,23.33
2023-02-11T14:58:33.150Z,20.30
2023-02-11T15:01:35.204Z,24.33
2023-02-11T15:04:05.411Z,23.92
2023-02-11T15:06:42.520Z,21.27
2023-02-11T15:09:43.526Z,23.65
2023-02-11T15:12:24.748Z,20.30
2023-02-11T15:14:55.627Z,22.42
2023-02-11T15:17:25.854Z,30.40
2023-02-11T15:19:55.663Z,21.02
2023-02-11T15:22:29.192Z,26.05
2023-02-11T15:25:10.361Z,25.85
2023-02-11T15:27:44.971Z,25.52
2023-02-11T15:30:24.326Z,28.88
2023-02-11T15:35:36.704Z,25.10
2023-02-11T15:38:08.392Z,26.75
2023-02-11T15:40:37.385Z,28.17
2023-02-11T15:43:09.933Z,36.58
2023-02-11T15:45:53.623Z,26.83
2023-02-11T15:48:28.692Z,28.77
2023-02-11T15:51:00.719Z,30.10
2023-02-11T15:53:43.431Z,32.58
2023-02-11T15:56:29.790Z,29.30
2023-02-11T15:59:02.754Z,36.00
2023-02-11T16:01:34.056Z,28.70
2023-02-11T16:04:01.955Z,27.90
2023-02-11T16:06:37.083Z,27.60
2023-02-11T16:09:11.205Z,25.35
2023-02-11T16:11:55.397Z,27.55
2023-02-11T16:14:33.095Z,24.67
2023-02-11T16:17:22.588Z,30.60
2023-02-11T16:19:51.986Z,30.05
2023-02-11T16:24:59.571Z,33.53
2023-02-11T16:27:30.501Z,20.50
2023-02-11T16:29:58.738Z,28.27
2023-02-11T16:32:28.490Z,25.50
2023-02-11T16:34:59.127Z,22.73
2023-02-11T16:37:26.365Z,27.67
2023-02-11T16:39:56.844Z,27.77
2023-02-11T16:42:25.168Z,34.47
2023-02-11T16:44:52.336Z,30.13
2023-02-11T16:47:28.333Z,25.55
2023-02-11T16:49:56.296Z,28.40
2023-02-11T16:52:23.567Z,25.73
2023-02-11T16:54:50.833Z,27.85
2023-02-11T16:57:21.773Z,35.22
2023-02-11T16:59:49.300Z,28.45
2023-02-11T17:02:28.436Z,36.80
2023-02-11T17:07:26.162Z,38.70
2023-02-11T17:09:53.332Z,35.10
2023-02-11T17:12:21.200Z,31.27
2023-02-11T17:14:48.155Z,39.10
2023-02-11T17:17:16.260Z,35.88
2023-02-11T17:19:43.867Z,30.65
2023-02-11T17:22:12.108Z,29.55
2023-02-11T17:24:39.057Z,37.10
2023-02-11T17:27:06.113Z,28.33
2023-02-11T17:29:33.044Z,30.75
2023-02-11T17:32:00.065Z,41.10
2023-02-11T17:34:29.248Z,43.83
2023-02-11T17:36:58.061Z,29.95
2023-02-11T17:39:26.109Z,30.15
2023-02-11T17:41:53.456Z,29.67
2023-02-11T17:44:20.556Z,44.20
2023-02-11T17:46:47.510Z,34.53
2023-02-11T17:49:16.050Z,29.00
2023-02-11T17:51:43.243Z,34.50
2023-02-11T17:54:16.908Z,29.90
2023-02-11T17:56:45.146Z,43.88
2023-02-11T17:59:13.387Z,39.72
2023-02-11T18:01:42.254Z,38.30
2023-02-11T18:04:13.757Z,30.02
2023-02-11T18:06:41.925Z,31.00
2023-02-11T18:09:09.609Z,35.22
2023-02-11T18:11:39.563Z,53.78
2023-02-11T18:14:08.524Z,54.85
2023-02-11T18:16:39.130Z,33.70
2023-02-11T18:19:07.741Z,38.30
2023-02-11T18:21:35.851Z,38.70
2023-02-11T18:24:06.736Z,41.50
2023-02-11T18:26:34.733Z,38.22
2023-02-11T18:29:02.298Z,35.15
2023-02-11T18:31:29.779Z,96.45
2023-02-11T18:33:56.661Z,28.27
2023-02-11T18:36:23.645Z,39.83
2023-02-11T18:38:54.314Z,35.30
2023-02-11T18:41:21.648Z,27.45
2023-02-11T18:43:49.019Z,26.92
2023-02-11T18:46:17.215Z,29.33
2023-02-11T18:48:45.362Z,28.23
2023-02-11T18:51:18.804Z,28.27
2023-02-11T18:53:46.285Z,27.38
2023-02-11T18:56:23.464Z,32.70
2023-02-11T18:58:51.475Z,32.90
2023-02-11T19:01:22.782Z,31.25
2023-02-11T19:03:50.652Z,28.60
2023-02-11T19:06:32.154Z,29.70
2023-02-11T19:09:01.952Z,23.42
2023-02-11T19:11:50.171Z,21.60
2023-02-11T19:14:21.614Z,25.83
2023-02-11T19:16:55.804Z,26.23
2023-02-11T19:19:30.312Z,24.05
2023-02-11T19:21:59.194Z,28.40
2023-02-11T19:24:27.837Z,27.15
2023-02-11T19:26:58.103Z,26.27
2023-02-11T19:29:26.221Z,27.13
2023-02-11T19:31:53.509Z,23.58
2023-02-11T19:34:21.719Z,18.85
2023-02-11T19:36:50.388Z,20.55
2023-02-11T19:39:18.515Z,16.65
2023-02-11T19:41:45.623Z,17.90
2023-02-11T19:44:14.103Z,19.35
2023-02-11T19:46:41.237Z,21.40
2023-02-11T19:49:10.024Z,17.65
2023-02-11T19:51:39.621Z,18.20
2023-02-11T19:54:07.697Z,17.42
2023-02-11T19:56:35.106Z,19.15
2023-02-11T19:59:03.854Z,15.68
2023-02-11T20:01:31.327Z,20.02
2023-02-11T20:03:58.506Z,19.05
2023-02-11T20:06:31.436Z,18.50
2023-02-11T20:09:05.349Z,19.23
2023-02-11T20:11:33.464Z,24.40
2023-02-11T20:14:01.005Z,16.98
2023-02-11T20:16:45.129Z,16.73
2023-02-11T20:19:18.163Z,17.77
2023-02-11T20:21:47.654Z,19.80
2023-02-11T20:26:43.046Z,20.80
2023-02-11T20:29:10.129Z,16.95
2023-02-11T20:31:37.372Z,19.35
2023-02-11T20:34:04.507Z,21.42
2023-02-11T20:36:35.633Z,19.17
2023-02-11T20:39:05.471Z,24.88
2023-02-11T20:41:35.110Z,20.85
2023-02-11T20:44:07.604Z,20.40
2023-02-11T20:46:37.135Z,18.98
2023-02-11T20:49:05.407Z,17.80
2023-02-11T20:51:36.717Z,14.98
2023-02-11T20:54:06.100Z,14.45
2023-02-11T20:56:37.118Z,14.18
2023-02-11T20:59:06.204Z,16.13
2023-02-11T21:01:36.855Z,20.65
2023-02-11T21:04:11.765Z,24.25
2023-02-11T21:06:41.782Z,18.02
2023-02-11T21:09:13.165Z,18.67
2023-02-11T21:11:40.973Z,25.65
2023-02-11T21:14:08.503Z,25.67
2023-02-11T21:16:35.637Z,21.08
2023-02-11T21:19:03.134Z,23.65
2023-02-11T21:21:30.310Z,23.02
2023-02-11T21:23:58.628Z,24.10
2023-02-11T21:26:25.870Z,27.25
2023-02-11T21:28:53.310Z,30.00
2023-02-11T21:31:26.559Z,30.30
2023-02-11T21:33:59.314Z,26.00
2023-02-11T21:36:28.685Z,24.38
2023-02-11T21:38:55.840Z,23.85
2023-02-11T21:41:24.831Z,33.97
2023-02-11T21:43:52.119Z,32.38
2023-02-11T21:46:21.287Z,31.05
2023-02-11T21:48:51.113Z,34.45
2023-02-11T21:51:21.550Z,22.67
2023-02-11T21:53:53.629Z,19.85
2023-02-11T21:56:21.743Z,20.52
2023-02-11T21:58:53.885Z,20.48
2023-02-11T22:01:24.073Z,16.30
2023-02-11T22:03:51.244Z,19.50
2023-02-11T22:06:22.879Z,19.90
2023-02-11T22:08:50.465Z,23.40
2023-02-11T22:11:17.718Z,25.02
2023-02-11T22:13:45.573Z,24.50
2023-02-11T22:16:15.874Z,23.45
2023-02-11T22:18:46.745Z,20.38
2023-02-11T22:21:16.906Z,21.02
2023-02-11T22:23:44.463Z,22.10
2023-02-11T22:26:17.816Z,20.35
2023-02-11T22:28:46.242Z,19.75
2023-02-11T22:31:25.257Z,20.63
2023-02-11T22:33:52.912Z,21.60
2023-02-11T22:36:30.582Z,26.45
2023-02-11T22:39:11.702Z,20.80
2023-02-11T22:41:40.732Z,20.50
2023-02-11T22:44:08.552Z,20.65
2023-02-11T22:46:35.889Z,24.25
2023-02-11T22:49:04.484Z,17.73
2023-02-11T22:51:31.730Z,22.60
2023-02-11T22:54:06.052Z,22.75
2023-02-11T22:56:34.806Z,20.08
2023-02-11T22:59:04.708Z,22.50
2023-02-11T23:01:32.135Z,21.20
2023-02-11T23:04:00.393Z,18.60
2023-02-11T23:06:27.936Z,18.20
2023-02-11T23:08:55.248Z,20.17
2023-02-11T23:11:28.435Z,17.85
2023-02-11T23:13:55.722Z,17.90
2023-02-11T23:16:32.668Z,14.82
2023-02-11T23:19:01.881Z,16.83
2023-02-11T23:21:32.300Z,16.80
2023-02-11T23:24:02.271Z,19.35
2023-02-11T23:26:29.578Z,17.23
2023-02-11T23:28:58.851Z,19.02
2023-02-11T23:31:34.073Z,18.63
2023-02-11T23:34:01.639Z,17.38
2023-02-11T23:36:29.086Z,18.33
2023-02-11T23:38:56.187Z,16.45
2023-02-11T23:41:24.301Z,17.85
2023-02-11T23:43:53.512Z,18.95
2023-02-11T23:46:24.570Z,16.65
2023-02-11T23:48:52.443Z,17.08
2023-02-11T23:51:19.621Z,17.20
2023-02-11T23:53:49.280Z,18.23
2023-02-11T23:56:20.017Z,20.42
2023-02-11T23:58:52.173Z,19.30
